Time;durP1;ratioP1;P1;durP2;ratioP2;P2;SDS_P1;SDS_P2;PMS_P1;PMS_P2;Temp;Humidity;BMP_temperature;BMP_pressure;BME280_temperature;BME280_humidity;BME280_pressure;Samples;Min_cycle;Max_cycle;Signal;HPM_P1;HPM_P2
2022/09/19 00:00:20;;;;;;;2.20;1.55;;;;;;;8.94;100.00;97888.89;1678793;84;20995;-73
2022/09/19 00:02:47;;;;;;;2.02;1.55;;;;;;;8.96;100.00;97896.77;1670299;84;20914;-73
2022/09/19 00:05:16;;;;;;;2.65;1.50;;;;;;;8.97;100.00;97904.63;1677552;84;20910;-73
2022/09/19 00:07:51;;;;;;;1.92;1.72;;;;;;;8.99;100.00;97894.13;1673923;84;21037;-72
2022/09/19 00:10:19;;;;;;;1.82;1.50;;;;;;;9.01;100.00;97897.89;1663028;85;21307;-73
2022/09/19 00:12:55;;;;;;;2.87;1.90;;;;;;;9.02;100.00;97901.66;1673677;84;20957;-72
2022/09/19 00:15:29;;;;;;;1.90;1.57;;;;;;;9.02;100.00;97905.76;1671670;84;21506;-73
2022/09/19 00:17:59;;;;;;;3.12;1.65;;;;;;;9.02;100.00;97905.76;1651944;84;21590;-73
2022/09/19 00:20:30;;;;;;;2.35;1.60;;;;;;;9.03;100.00;97905.19;1673072;84;21490;-75
2022/09/19 00:25:52;;;;;;;3.12;1.57;;;;;;;9.04;100.00;97910.89;1680869;84;21048;-75
2022/09/19 00:28:27;;;;;;;1.70;1.60;;;;;;;9.04;100.00;97911.69;1653603;84;21035;-74
2022/09/19 00:30:59;;;;;;;3.42;1.92;;;;;;;9.04;100.00;97911.69;1676512;84;21026;-74
2022/09/19 00:33:32;;;;;;;4.70;2.08;;;;;;;9.05;100.00;97908.38;1672198;84;20981;-75
2022/09/19 00:36:06;;;;;;;5.25;2.22;;;;;;;9.05;100.00;97911.91;1679952;84;21591;-73
2022/09/19 00:38:39;;;;;;;4.78;2.33;;;;;;;9.06;100.00;97904.50;1671844;85;20969;-73
2022/09/19 00:41:13;;;;;;;2.75;1.72;;;;;;;9.06;100.00;97905.30;1673523;84;25860;-73
2022/09/19 00:44:27;;;;;;;6.75;2.10;;;;;;;9.07;100.00;97912.94;1677526;84;21178;-72
2022/09/19 00:47:10;;;;;;;4.58;2.30;;;;;;;9.06;100.00;97912.14;1658856;84;20969;-73
2022/09/19 00:49:41;;;;;;;3.02;2.37;;;;;;;9.07;100.00;97916.47;1674727;85;21180;-73
2022/09/19 00:52:18;;;;;;;3.77;2.33;;;;;;;9.07;100.00;97918.41;1675003;84;21073;-73
2022/09/19 00:54:50;;;;;;;2.50;2.10;;;;;;;9.07;100.00;97919.20;1681537;84;20994;-73
2022/09/19 00:57:24;;;;;;;9.98;2.60;;;;;;;9.07;100.00;97917.84;1665887;84;20921;-73
2022/09/19 01:00:00;;;;;;;9.58;2.62;;;;;;;9.07;100.00;97924.69;1662083;84;21093;-74
2022/09/19 01:02:32;;;;;;;2.83;2.47;;;;;;;9.10;100.00;97923.20;1683494;84;21518;-74
2022/09/19 01:05:06;;;;;;;3.37;2.75;;;;;;;9.12;100.00;97927.19;1670031;85;21041;-74
2022/09/19 01:07:57;;;;;;;6.95;3.12;;;;;;;9.14;100.00;97926.84;1676938;84;21517;-74
2022/09/19 01:10:54;;;;;;;3.10;2.75;;;;;;;9.15;100.00;97933.34;1636237;84;21051;-76
2022/09/19 01:13:37;;;;;;;4.37;2.58;;;;;;;9.16;100.00;97934.94;1676177;84;20973;-72
2022/09/19 01:16:10;;;;;;;3.62;2.65;;;;;;;9.16;100.00;97934.94;1666442;85;21173;-72
2022/09/19 01:18:52;;;;;;;7.45;3.10;;;;;;;9.17;100.00;97932.99;1666707;84;21014;-72
2022/09/19 01:21:40;;;;;;;4.58;2.70;;;;;;;9.19;100.00;97934.81;1645864;85;21104;-73
2022/09/19 01:24:31;;;;;;;4.95;3.12;;;;;;;9.20;100.00;97935.04;1637749;85;20924;-73
2022/09/19 01:27:21;;;;;;;4.97;2.87;;;;;;;9.20;100.00;97941.31;1670193;84;21013;-73
2022/09/19 01:30:05;;;;;;;8.18;2.90;;;;;;;9.22;100.00;97941.77;1677235;85;21142;-73
2022/09/19 01:32:58;;;;;;;6.67;3.08;;;;;;;9.22;100.00;97939.60;1659033;84;21440;-72
2022/09/19 01:35:34;;;;;;;5.37;2.92;;;;;;;9.23;100.00;97946.67;1658498;84;20954;-74
2022/09/19 01:38:08;;;;;;;4.75;2.87;;;;;;;9.23;100.00;97938.46;1673165;84;20950;-72
2022/09/19 01:40:38;;;;;;;6.47;2.83;;;;;;;9.23;100.00;97954.31;1676521;84;21108;-73
2022/09/19 01:43:11;;;;;;;7.40;3.10;;;;;;;9.24;100.00;97959.98;1678287;84;21219;-74
2022/09/19 01:45:43;;;;;;;4.72;2.90;;;;;;;9.24;100.00;97955.88;1672820;84;45528;-72
2022/09/19 01:48:51;;;;;;;6.67;3.33;;;;;;;9.25;100.00;97958.84;1670198;84;21172;-73
2022/09/19 01:51:31;;;;;;;5.30;3.60;;;;;;;9.24;100.00;97965.47;1651790;84;21131;-72
2022/09/19 01:54:18;;;;;;;3.55;2.92;;;;;;;9.23;100.00;97959.80;1604452;87;21049;-73
2022/09/19 01:57:14;;;;;;;4.50;2.60;;;;;;;9.23;100.00;97970.75;1596688;87;20980;-74
2022/09/19 02:00:15;;;;;;;4.97;2.95;;;;;;;9.23;100.00;97976.22;1599240;88;21008;-75
2022/09/19 02:03:28;;;;;;;4.53;2.70;;;;;;;9.22;100.00;97973.26;1616292;88;21390;-74
2022/09/19 02:06:13;;;;;;;4.87;3.00;;;;;;;9.22;100.00;97986.95;1617635;87;21016;-74
2022/09/19 02:09:06;;;;;;;5.37;2.87;;;;;;;9.22;100.00;97981.47;1621931;87;21040;-74
2022/09/19 02:11:47;;;;;;;5.40;3.10;;;;;;;9.23;100.00;97988.54;1614269;88;21896;-73
2022/09/19 02:14:22;;;;;;;6.80;3.22;;;;;;;9.22;100.00;97996.53;1625117;88;21489;-74
2022/09/19 02:17:02;;;;;;;4.47;3.47;;;;;;;9.23;100.00;97994.59;1615062;88;21555;-74
2022/09/19 02:19:41;;;;;;;4.03;2.65;;;;;;;9.22;100.00;97995.16;1617982;88;21615;-72
2022/09/19 02:22:20;;;;;;;3.60;2.60;;;;;;;9.23;100.00;98012.39;1660820;85;21010;-72
2022/09/19 02:24:47;;;;;;;6.62;3.22;;;;;;;9.24;100.00;98010.64;1658661;85;21177;-72
2022/09/19 02:27:23;;;;;;;3.52;3.00;;;;;;;9.24;100.00;98012.02;1659013;86;21017;-72
2022/09/19 02:30:05;;;;;;;3.80;2.85;;;;;;;9.24;100.00;98018.09;1652497;85;21087;-75
2022/09/19 02:32:31;;;;;;;5.33;3.10;;;;;;;9.24;100.00;98013.38;1652705;86;21036;-74
2022/09/19 02:34:59;;;;;;;4.95;2.85;;;;;;;9.24;100.00;98009.27;1666233;84;21078;-74
2022/09/19 02:37:35;;;;;;;8.23;3.30;;;;;;;9.24;100.00;98025.70;1645863;85;21128;-74
2022/09/19 02:40:22;;;;;;;3.83;3.30;;;;;;;9.24;100.00;98026.30;1621015;85;20952;-74
2022/09/19 02:43:03;;;;;;;5.90;3.02;;;;;;;9.22;100.00;98023.91;1663566;85;21501;-73
2022/09/19 02:45:41;;;;;;;6.83;3.22;;;;;;;9.22;100.00;98024.48;1666330;85;21529;-74
2022/09/19 02:48:49;;;;;;;6.60;3.33;;;;;;;9.19;100.00;98031.44;1668351;85;21033;-73
2022/09/19 02:51:30;;;;;;;3.75;3.15;;;;;;;9.17;100.00;98036.46;1599954;87;21258;-73
2022/09/19 02:54:08;;;;;;;4.45;2.90;;;;;;;9.16;100.00;98042.28;1607040;86;20972;-73
2022/09/19 02:56:37;;;;;;;3.35;3.05;;;;;;;9.15;100.00;98044.22;1667091;85;21518;-74
2022/09/19 02:59:10;;;;;;;6.75;3.37;;;;;;;9.14;100.00;98048.09;1661379;85;21042;-75
2022/09/19 03:01:45;;;;;;;4.62;2.95;;;;;;;9.14;100.00;98048.09;1664125;85;21081;-75
2022/09/19 03:04:29;;;;;;;4.42;3.30;;;;;;;9.15;100.00;98058.48;1663306;85;21124;-74
2022/09/19 03:07:14;;;;;;;3.35;3.00;;;;;;;9.16;100.00;98056.77;1672374;85;20941;-75
2022/09/19 03:09:52;;;;;;;3.95;3.30;;;;;;;9.17;100.00;98067.95;1663335;85;21017;-75
2022/09/19 03:12:47;;;;;;;4.30;3.58;;;;;;;9.18;100.00;98057.22;1649612;83;21038;-75
2022/09/19 03:15:16;;;;;;;4.58;3.12;;;;;;;9.19;100.00;98068.97;1698624;82;21048;-75
2022/09/19 03:17:49;;;;;;;3.77;3.30;;;;;;;9.19;100.00;98069.77;1662324;84;21326;-75
2022/09/19 03:20:24;;;;;;;6.33;3.05;;;;;;;9.20;100.00;98070.00;1672519;84;20858;-75
2022/09/19 03:22:55;;;;;;;5.50;3.37;;;;;;;9.20;100.00;98080.16;1674893;84;21067;-76
2022/09/19 03:25:25;;;;;;;3.95;3.35;;;;;;;9.20;100.00;98071.38;1657079;85;21521;-76
2022/09/19 03:27:55;;;;;;;6.30;3.65;;;;;;;9.20;100.00;98080.95;1657036;85;21077;-74
2022/09/19 03:30:24;;;;;;;5.87;3.15;;;;;;;9.18;100.00;98081.06;1668679;84;21678;-75
2022/09/19 03:32:53;;;;;;;8.48;3.40;;;;;;;9.16;100.00;98088.25;1700969;82;21008;-74
2022/09/19 03:35:21;;;;;;;7.53;3.45;;;;;;;9.14;100.00;98087.79;1696171;83;21019;-75
2022/09/19 03:37:54;;;;;;;4.00;3.37;;;;;;;9.10;100.00;98085.51;1654290;85;21029;-75
2022/09/19 03:40:32;;;;;;;3.70;3.30;;;;;;;9.09;100.00;98096.80;1698052;83;20965;-75
2022/09/19 03:43:02;;;;;;;5.15;3.80;;;;;;;9.06;100.00;98105.13;1675140;83;21071;-74
2022/09/19 03:45:36;;;;;;;6.92;3.87;;;;;;;9.04;100.00;98105.23;1699991;82;20952;-74
2022/09/19 03:48:10;;;;;;;6.47;3.62;;;;;;;9.01;100.00;98109.45;1701755;84;20893;-74
2022/09/19 03:50:43;;;;;;;11.75;4.62;;;;;;;9.00;100.00;98113.89;1639743;85;21611;-73
2022/09/19 03:53:14;;;;;;;9.98;4.40;;;;;;;8.99;100.00;98123.24;1665697;84;21025;-74
2022/09/19 03:55:48;;;;;;;4.70;4.00;;;;;;;8.98;100.00;98112.06;1674737;85;21765;-74
2022/09/19 03:58:20;;;;;;;6.33;3.95;;;;;;;8.98;100.00;98123.81;1649934;85;21221;-73
2022/09/19 04:00:48;;;;;;;8.47;4.20;;;;;;;8.99;100.00;98130.09;1627983;86;20931;-73
2022/09/19 04:03:18;;;;;;;8.03;5.25;;;;;;;9.00;100.00;98139.33;1641759;86;20989;-73
2022/09/19 04:05:47;;;;;;;5.67;4.12;;;;;;;9.03;100.00;98142.75;1662667;84;21100;-72
2022/09/19 04:08:21;;;;;;;7.47;4.83;;;;;;;9.08;100.00;98140.37;1677695;84;21170;-73
2022/09/19 04:10:51;;;;;;;5.03;3.73;;;;;;;9.13;100.00;98159.31;1658616;85;21100;-73
2022/09/19 04:13:21;;;;;;;7.42;4.75;;;;;;;9.15;100.00;98144.14;1696171;83;21866;-73
2022/09/19 04:15:54;;;;;;;6.00;5.00;;;;;;;9.18;100.00;98161.27;1669222;85;21018;-73
2022/09/19 04:18:25;;;;;;;5.70;4.05;;;;;;;9.21;100.00;98172.91;1671500;85;20879;-72
2022/09/19 04:21:04;;;;;;;12.53;4.60;;;;;;;9.23;100.00;98167.09;1662939;85;21208;-73
2022/09/19 04:23:34;;;;;;;6.17;4.25;;;;;;;9.25;100.00;98174.37;1656521;85;20903;-73
2022/09/19 04:26:25;;;;;;;6.95;4.50;;;;;;;9.27;100.00;98183.84;1671028;84;20980;-76
2022/09/19 04:28:49;;;;;;;9.13;4.65;;;;;;;9.30;100.00;98185.67;1671022;84;21037;-75
2022/09/19 04:31:22;;;;;;;7.22;4.42;;;;;;;9.30;100.00;98184.30;1709882;82;20998;-73
2022/09/19 04:33:56;;;;;;;7.55;4.58;;;;;;;9.30;100.00;98189.20;1669393;84;21587;-75
2022/09/19 04:36:32;;;;;;;10.53;4.83;;;;;;;9.31;100.00;98197.66;1627348;86;20991;-76
2022/09/19 04:39:05;;;;;;;6.55;5.08;;;;;;;9.33;100.00;98197.31;1616016;88;21139;-76
2022/09/19 04:41:36;;;;;;;4.60;4.10;;;;;;;9.32;100.00;98200.63;1672074;84;21040;-77
2022/09/19 04:44:04;;;;;;;5.70;4.35;;;;;;;9.34;100.00;98205.77;1673529;84;21020;-76
2022/09/19 04:46:50;;;;;;;4.92;4.33;;;;;;;9.34;100.00;98212.61;1669063;85;21649;-75
2022/09/19 04:49:16;;;;;;;5.45;4.25;;;;;;;9.34;100.00;98198.91;1645248;85;21486;-74
2022/09/19 04:51:45;;;;;;;5.70;4.35;;;;;;;9.35;100.00;98215.58;1657461;85;21553;-74
2022/09/19 04:54:14;;;;;;;7.47;4.60;;;;;;;9.35;100.00;98213.64;1657123;85;21007;-73
2022/09/19 04:56:52;;;;;;;7.87;4.70;;;;;;;9.36;100.00;98218.55;1646312;86;21012;-73
2022/09/19 04:59:18;;;;;;;4.78;4.12;;;;;;;9.36;100.00;98228.93;1627764;86;21184;-74
2022/09/19 05:01:45;;;;;;;5.45;4.28;;;;;;;9.38;100.00;98225.85;1628785;86;21006;-76
2022/09/19 05:04:18;;;;;;;5.28;4.10;;;;;;;9.39;100.00;98231.56;1633778;84;21136;-73
2022/09/19 05:06:46;;;;;;;4.22;3.58;;;;;;;9.41;100.00;98242.98;1651821;83;20987;-77
2022/09/19 05:09:22;;;;;;;10.68;3.80;;;;;;;9.41;100.00;98241.61;1680013;83;21582;-76
2022/09/19 05:11:56;;;;;;;7.50;4.35;;;;;;;9.43;100.00;98242.07;1688537;83;21169;-77
2022/09/19 05:14:26;;;;;;;4.92;4.00;;;;;;;9.45;100.00;98254.86;1680085;83;20909;-75
2022/09/19 05:16:55;;;;;;;5.72;4.12;;;;;;;9.45;100.00;98259.77;1694411;82;21603;-74
2022/09/19 05:19:23;;;;;;;5.37;3.77;;;;;;;9.47;100.00;98261.59;1701581;81;21068;-78
2022/09/19 05:21:53;;;;;;;4.75;3.62;;;;;;;9.49;100.00;98268.11;1689339;83;21115;-75
2022/09/19 05:24:20;;;;;;;3.90;3.22;;;;;;;9.50;100.00;98269.13;1675390;84;21668;-79
2022/09/19 05:26:52;;;;;;;7.15;3.35;;;;;;;9.52;100.00;98267.42;1689631;83;21053;-79
2022/09/19 05:29:18;;;;;;;3.62;2.95;;;;;;;9.57;100.00;98279.54;1685442;84;20909;-77
2022/09/19 05:31:50;;;;;;;3.10;2.80;;;;;;;9.59;100.00;98280.00;1689857;83;21040;-73
2022/09/19 05:34:25;;;;;;;4.08;3.22;;;;;;;9.58;100.00;98289.36;1635165;83;21573;-73
2022/09/19 05:36:56;;;;;;;3.62;2.90;;;;;;;9.58;100.00;98291.53;1689852;82;21166;-70
2022/09/19 05:39:44;;;;;;;4.37;3.12;;;;;;;9.58;100.00;98298.95;1680535;82;21007;-78
2022/09/19 05:42:12;;;;;;;4.35;2.95;;;;;;;9.57;100.00;98298.72;1685184;84;21056;-72
2022/09/19 05:44:44;;;;;;;4.08;2.98;;;;;;;9.57;100.00;98306.94;1681727;83;20962;-74
2022/09/19 05:47:17;;;;;;;9.75;4.20;;;;;;;9.57;100.00;98306.36;1689596;83;21147;-77
2022/09/19 05:49:45;;;;;;;5.83;3.45;;;;;;;9.56;100.00;98312.98;1686313;82;21181;-78
2022/09/19 05:55:02;;;;;;;3.58;2.58;;;;;;;9.57;100.00;98317.33;1683655;83;21068;-75
2022/09/19 05:57:42;;;;;;;;;;;;;;;9.57;100.00;98326.91;1699497;82;21625;-75
2022/09/19 06:00:13;;;;;;;6.87;3.33;;;;;;;9.60;100.00;98326.80;1689422;82;20149;-80
2022/09/19 06:02:39;;;;;;;3.25;2.35;;;;;;;9.63;100.00;98318.48;1685208;83;21299;-80
2022/09/19 06:05:10;;;;;;;3.10;2.55;;;;;;;9.66;100.00;98330.13;1690144;82;21016;-80
2022/09/19 06:07:38;;;;;;;5.05;2.70;;;;;;;9.70;100.00;98330.48;1663950;84;21459;-79
2022/09/19 06:10:08;;;;;;;3.80;2.90;;;;;;;9.75;100.00;98336.32;1652707;84;21023;-82
2022/09/19 06:12:37;;;;;;;4.67;3.05;;;;;;;9.81;100.00;98339.08;1643402;85;21613;-79
2022/09/19 06:15:05;;;;;;;5.62;3.27;;;;;;;9.88;100.00;98348.88;1647831;85;21130;-79
2022/09/19 06:17:32;;;;;;;4.40;3.05;;;;;;;9.99;100.00;98351.41;1643646;85;21531;-79
2022/09/19 06:20:17;;;;;;;3.47;2.90;;;;;;;10.12;100.00;98349.49;1656018;84;20960;-80
2022/09/19 06:22:50;;;;;;;3.40;2.60;;;;;;;10.23;100.00;98358.91;1658479;83;21520;-74
2022/09/19 06:25:19;;;;;;;4.28;2.72;;;;;;;10.30;100.00;98364.63;1647696;85;21119;-73
2022/09/19 06:28:01;;;;;;;3.20;2.90;;;;;;;10.33;100.00;98366.68;1651289;84;21069;-76
2022/09/19 06:30:33;;;;;;;4.67;2.62;;;;;;;10.37;100.00;98370.34;1665733;84;21530;-76
2022/09/19 06:33:20;;;;;;;4.55;2.45;;;;;;;10.47;100.00;98367.11;1694754;83;20956;-76
2022/09/19 06:36:05;;;;;;;4.90;2.90;;;;;;;10.69;100.00;98380.94;1693111;82;21128;-78
2022/09/19 06:38:40;;;;;;;5.15;2.70;;;;;;;10.82;100.00;98374.87;1675452;83;20901;-78
2022/09/19 06:41:24;;;;;;;5.80;3.37;;;;;;;10.87;100.00;98385.61;1652131;85;21558;-79
2022/09/19 06:44:03;;;;;;;6.22;2.98;;;;;;;10.87;100.00;98380.13;1664073;83;21083;-78
2022/09/19 06:46:37;;;;;;;3.75;2.22;;;;;;;10.83;100.00;98389.62;1681679;84;20993;-76
2022/09/19 06:49:22;;;;;;;10.25;4.33;;;;;;;10.80;100.00;98388.14;1689452;83;21124;-78
2022/09/19 06:51:57;;;;;;;21.10;10.05;;;;;;;10.80;100.00;98394.42;1684394;83;21059;-78
2022/09/19 06:54:24;;;;;;;37.42;16.50;;;;;;;10.77;100.00;98395.69;1694629;82;21147;-79
2022/09/19 06:56:59;;;;;;;16.15;9.45;;;;;;;10.73;100.00;98409.30;1675566;83;21119;-85
2022/09/19 06:59:30;;;;;;;8.10;6.12;;;;;;;10.69;100.00;98404.27;1671853;83;21003;-84
2022/09/19 07:02:03;;;;;;;7.80;4.00;;;;;;;10.69;100.00;98398.78;1650414;84;21054;-78
2022/09/19 07:04:34;;;;;;;9.10;3.22;;;;;;;10.71;100.00;98410.79;1630695;85;21540;-82
2022/09/19 07:07:11;;;;;;;5.37;3.58;;;;;;;10.76;100.00;98399.58;1650895;85;21142;-79
2022/09/19 07:09:45;;;;;;;4.58;3.30;;;;;;;10.81;100.00;98421.30;1643389;85;21056;-78
2022/09/19 07:12:15;;;;;;;4.53;3.70;;;;;;;10.93;100.00;98423.25;1630102;85;20989;-76
2022/09/19 07:14:45;;;;;;;3.50;2.75;;;;;;;11.04;100.00;98419.66;1634428;86;20958;-77
2022/09/19 07:17:15;;;;;;;5.30;3.10;;;;;;;11.11;100.00;98429.48;1672476;83;21610;-75
2022/09/19 07:19:45;;;;;;;8.48;3.40;;;;;;;11.13;100.00;98425.81;1679697;82;21606;-76
2022/09/19 07:22:20;;;;;;;8.23;3.30;;;;;;;11.11;100.00;98441.04;1684007;82;21052;-77
2022/09/19 07:25:07;;;;;;;7.53;3.15;;;;;;;11.05;100.00;98445.97;1614407;86;21138;-78
2022/09/19 07:27:36;;;;;;;6.22;3.12;;;;;;;11.01;100.00;98418.97;1647018;84;21014;-78
2022/09/19 07:30:05;;;;;;;6.85;3.15;;;;;;;11.02;100.00;98447.23;1682158;83;21012;-78
2022/09/19 07:32:37;;;;;;;4.90;3.12;;;;;;;11.05;100.00;98451.46;1663665;83;21237;-74
2022/09/19 07:35:10;;;;;;;5.75;3.90;;;;;;;11.11;100.00;98442.41;1681038;83;21181;-79
2022/09/19 07:37:44;;;;;;;4.10;3.05;;;;;;;11.18;100.00;98449.50;1643983;85;20957;-81
2022/09/19 07:40:19;;;;;;;5.22;2.77;;;;;;;11.20;100.00;98460.38;1640610;86;21138;-78
2022/09/19 07:42:55;;;;;;;13.68;3.33;;;;;;;11.18;100.00;98459.92;1667112;85;21538;-79
2022/09/19 07:45:27;;;;;;;4.62;3.70;;;;;;;11.16;100.00;98463.58;1621243;83;21302;-71
2022/09/19 07:48:08;;;;;;;6.37;3.60;;;;;;;11.11;100.00;98459.70;1680582;83;21089;-79
2022/09/19 07:50:39;;;;;;;6.60;3.20;;;;;;;11.07;100.00;98465.65;1678459;83;21089;-84
2022/09/19 07:53:22;;;;;;;7.00;3.33;;;;;;;11.07;100.00;98468.39;1694479;83;21570;-81
2022/09/19 07:55:55;;;;;;;10.18;3.70;;;;;;;11.10;100.00;98464.96;1699243;83;21058;-84
2022/09/19 07:58:24;;;;;;;6.70;3.80;;;;;;;11.17;100.00;98478.92;1699406;83;21164;-77
2022/09/19 08:01:00;;;;;;;8.18;3.45;;;;;;;11.27;100.00;98476.84;1697710;82;21166;-88
2022/09/19 08:03:51;;;;;;;6.97;3.45;;;;;;;11.43;100.00;98477.73;1635128;85;21588;-83
2022/09/19 08:06:24;;;;;;;4.17;2.83;;;;;;;11.70;100.00;98475.57;1613710;87;21060;-81
2022/09/19 08:08:55;;;;;;;7.00;3.17;;;;;;;12.24;100.00;98488.30;1624745;85;21079;-82
2022/09/19 08:11:35;;;;;;;7.62;2.83;;;;;;;12.75;95.13;98484.86;1654891;85;21767;-81
2022/09/19 08:14:04;;;;;;;8.15;2.98;;;;;;;12.96;88.60;98471.61;1701116;82;21064;-90
2022/09/19 08:16:38;;;;;;;5.45;3.00;;;;;;;12.94;87.20;98481.39;1697180;82;21138;-95
2022/09/19 08:19:05;;;;;;;7.05;2.92;;;;;;;12.87;87.63;98480.06;1703654;82;20982;-81
2022/09/19 08:21:35;;;;;;;8.40;3.42;;;;;;;12.98;89.38;98474.80;1703077;83;21042;-80
2022/09/19 08:24:03;;;;;;;9.68;4.42;;;;;;;13.11;86.83;98481.81;1708639;83;22925;-81
2022/09/19 08:26:32;;;;;;;8.45;3.60;;;;;;;13.33;85.97;98461.05;1705221;82;21430;-85
2022/09/19 08:29:04;;;;;;;6.70;2.75;;;;;;;13.62;84.22;98471.33;1653978;83;21083;-82
2022/09/19 08:31:37;;;;;;;11.80;4.33;;;;;;;13.72;80.54;98483.97;1692882;83;21445;-77
2022/09/19 08:34:08;;;;;;;9.95;4.47;;;;;;;13.80;80.30;98489.85;1704031;82;21022;-79
2022/09/19 08:36:45;;;;;;;7.70;3.58;;;;;;;13.85;79.73;98490.94;1685923;83;20980;-84
2022/09/19 08:39:22;;;;;;;5.22;2.20;;;;;;;13.69;76.49;98502.61;1704007;83;20978;-83
2022/09/19 08:42:21;;;;;;;6.03;3.20;;;;;;;13.40;77.75;98496.25;1706422;82;21053;-81
2022/09/19 08:45:20;;;;;;;6.83;2.90;;;;;;;13.46;80.67;98499.75;1663119;84;21624;-87
2022/09/19 08:47:47;;;;;;;5.67;2.22;;;;;;;14.13;80.43;98507.25;1676933;84;21853;-89
2022/09/19 08:50:28;;;;;;;5.47;2.07;;;;;;;14.66;73.68;98502.52;1684506;83;21125;-80
2022/09/19 08:53:01;;;;;;;7.33;2.30;;;;;;;14.66;72.65;98502.52;1678535;83;21493;-79
2022/09/19 08:55:35;;;;;;;5.40;2.20;;;;;;;14.49;73.59;98511.49;1656755;84;22067;-75
2022/09/19 08:58:14;;;;;;;8.88;2.60;;;;;;;14.34;74.31;98515.15;1680660;83;20984;-81
2022/09/19 09:00:45;;;;;;;5.65;2.10;;;;;;;14.23;72.73;98521.63;1676274;83;21093;-81
2022/09/19 09:03:22;;;;;;;6.25;2.40;;;;;;;14.07;73.31;98521.13;1660688;84;21951;-83
2022/09/19 09:06:00;;;;;;;8.23;2.42;;;;;;;13.89;74.19;98516.61;1677304;83;21141;-86
2022/09/19 09:08:56;;;;;;;5.05;2.50;;;;;;;13.73;74.55;98528.31;1676315;84;21002;-77
2022/09/19 09:11:56;;;;;;;5.80;1.60;;;;;;;13.59;75.08;98533.52;1639844;84;21038;-81
2022/09/19 09:15:01;;;;;;;4.90;1.90;;;;;;;13.58;76.40;98531.91;1665835;83;21106;-83
2022/09/19 09:17:44;;;;;;;4.33;1.95;;;;;;;13.65;75.27;98533.45;1675732;83;21143;-86
2022/09/19 09:20:41;;;;;;;9.40;2.08;;;;;;;13.62;75.17;98536.13;1678573;83;20955;-89
2022/09/19 09:23:15;;;;;;;5.67;1.95;;;;;;;13.64;75.96;98533.23;1681715;84;21616;-79
2022/09/19 09:25:49;;;;;;;8.48;2.00;;;;;;;13.79;73.88;98528.25;1678741;83;21135;-79
2022/09/19 09:28:41;;;;;;;4.12;1.98;;;;;;;14.25;74.12;98540.00;1677804;84;21018;-79
2022/09/19 09:31:28;;;;;;;3.40;1.70;;;;;;;14.88;71.17;98534.08;1679008;83;21726;-78
2022/09/19 09:34:17;;;;;;;7.40;1.90;;;;;;;15.45;71.26;98531.05;1677894;83;20899;-84
2022/09/19 09:36:49;;;;;;;6.10;1.70;;;;;;;15.94;67.00;98525.20;1677479;84;21005;-81
2022/09/19 09:39:28;;;;;;;8.90;1.70;;;;;;;16.01;65.67;98519.76;1679817;83;21078;-85
2022/09/19 09:41:58;;;;;;;4.05;1.47;;;;;;;15.87;63.66;98525.91;1671232;83;20972;-78
2022/09/19 09:44:44;;;;;;;2.70;1.62;;;;;;;15.73;63.42;98536.78;1660648;84;21117;-82
2022/09/19 09:47:56;;;;;;;6.47;2.12;;;;;;;15.72;64.43;98534.59;1648014;85;20911;-76
2022/09/19 09:51:00;;;;;;;4.67;1.70;;;;;;;15.81;63.92;98536.50;1646709;85;20991;-84
2022/09/19 09:54:04;;;;;;;6.42;1.55;;;;;;;15.83;62.98;98550.77;1652501;85;21833;-82
2022/09/19 09:56:45;;;;;;;2.67;1.27;;;;;;;15.58;61.15;98546.88;1660486;84;21121;-88
2022/09/19 10:05:46;;;;;;;8.93;1.90;;;;;;;15.66;62.94;98554.66;1648319;85;21102;-80
2022/09/19 10:08:40;;;;;;;5.62;1.80;;;;;;;16.09;61.81;98553.28;1651493;85;21070;-82
2022/09/19 10:11:42;;;;;;;3.08;1.10;;;;;;;16.41;59.19;98559.19;1651495;85;21043;-83
2022/09/19 10:14:19;;;;;;;3.40;1.37;;;;;;;16.14;58.59;98558.48;1665948;83;21226;-81
2022/09/19 10:16:48;;;;;;;5.20;1.25;;;;;;;15.78;60.47;98571.05;1651100;85;21629;-78
2022/09/19 10:19:39;;;;;;;7.47;1.60;;;;;;;15.53;61.76;98574.82;1651413;85;21251;-79
2022/09/19 10:22:15;;;;;;;5.17;1.30;;;;;;;15.31;61.06;98582.56;1633066;85;21028;-82
2022/09/19 10:24:55;;;;;;;5.72;2.25;;;;;;;15.05;62.43;98577.20;1651551;85;21074;-82
2022/09/19 10:27:38;;;;;;;4.20;1.00;;;;;;;14.96;63.29;98584.16;1650721;86;21835;-83
2022/09/19 10:30:18;;;;;;;7.22;1.65;;;;;;;15.03;63.02;98575.38;1651038;85;21098;-76
2022/09/19 10:32:48;;;;;;;5.22;1.50;;;;;;;15.49;63.30;98596.09;1664496;83;20955;-79
2022/09/19 10:35:37;;;;;;;3.67;0.98;;;;;;;16.05;61.62;98588.42;1652611;84;21224;-81
2022/09/19 10:38:14;;;;;;;3.37;0.98;;;;;;;16.72;61.00;98598.16;1646716;86;21015;-79
2022/09/19 10:41:01;;;;;;;5.40;1.82;;;;;;;17.16;56.81;98601.75;1674865;83;21006;-80
2022/09/19 10:43:47;;;;;;;6.10;1.47;;;;;;;17.21;54.69;98598.42;1674442;83;21629;-77
2022/09/19 10:46:31;;;;;;;7.53;1.72;;;;;;;17.02;54.69;98605.77;1684888;83;21216;-84
2022/09/19 10:48:59;;;;;;;5.12;1.65;;;;;;;16.68;54.64;98620.87;1669533;83;21031;-79
2022/09/19 10:51:33;;;;;;;8.63;2.47;;;;;;;16.24;56.21;98618.72;1686324;83;21910;-81
2022/09/19 10:54:31;;;;;;;8.58;3.08;;;;;;;15.90;57.75;98623.99;1683971;83;21165;-84
2022/09/19 10:57:00;;;;;;;5.70;1.27;;;;;;;15.67;58.86;98636.48;1681507;83;21042;-82
2022/09/19 10:59:36;;;;;;;19.05;3.95;;;;;;;15.49;59.51;98637.58;1690313;83;20975;-85
2022/09/19 11:02:25;;;;;;;29.12;3.90;;;;;;;15.38;61.29;98645.70;1688722;82;21003;-88
2022/09/19 11:05:02;;;;;;;54.48;27.60;;;;;;;15.33;61.73;98647.97;1694110;83;21070;-87
2022/09/19 11:07:48;;;;;;;15.48;4.65;;;;;;;15.28;60.82;98655.19;1660529;82;21282;-83
2022/09/19 11:10:38;;;;;;;5.67;1.72;;;;;;;15.18;61.74;98651.86;1691134;83;21110;-86
2022/09/19 11:13:16;;;;;;;9.33;1.87;;;;;;;15.09;60.67;98656.83;1667787;84;21041;-84
2022/09/19 11:15:56;;;;;;;5.80;1.35;;;;;;;15.10;62.30;98661.20;1685157;83;21113;-84
2022/09/19 11:18:35;;;;;;;10.85;4.67;;;;;;;15.14;60.25;98657.91;1679510;82;21149;-78
2022/09/19 11:21:25;;;;;;;7.10;2.92;;;;;;;15.16;60.23;98657.55;1631869;85;21180;-81
2022/09/19 11:24:18;;;;;;;4.67;1.62;;;;;;;15.39;61.91;98663.09;1625135;86;21200;-85
2022/09/19 11:27:08;;;;;;;3.27;1.47;;;;;;;15.67;61.18;98660.00;1611219;86;21083;-86
2022/09/19 11:29:54;;;;;;;8.38;2.47;;;;;;;15.95;58.85;98667.37;1657295;82;21030;-78
2022/09/19 11:32:39;;;;;;;6.05;2.40;;;;;;;16.45;57.71;98668.05;1638043;84;21125;-80
2022/09/19 11:35:35;;;;;;;5.15;2.02;;;;;;;17.03;56.03;98652.32;1671338;83;21153;-81
2022/09/19 11:38:19;;;;;;;8.23;1.07;;;;;;;17.46;54.23;98649.34;1689745;82;21073;-78
2022/09/19 11:41:21;;;;;;;3.02;1.17;;;;;;;17.50;53.70;98648.20;1689328;82;21069;-84
2022/09/19 11:44:01;;;;;;;5.47;1.22;;;;;;;17.45;55.05;98653.30;1719156;82;21540;-83
2022/09/19 11:46:44;;;;;;;7.22;1.20;;;;;;;17.56;53.46;98649.23;1705824;82;21039;-81
2022/09/19 11:49:59;;;;;;;3.58;0.90;;;;;;;17.51;54.64;98651.77;1692274;83;21063;-75
2022/09/19 11:53:05;;;;;;;2.77;0.95;;;;;;;17.43;51.96;98653.69;1650143;83;21744;-78
2022/09/19 11:55:56;;;;;;;7.35;2.02;;;;;;;17.58;50.91;98653.22;1641175;85;21606;-77
2022/09/19 11:59:13;;;;;;;6.80;0.98;;;;;;;17.77;48.51;98648.84;1654998;83;21190;-80
2022/09/19 12:02:20;;;;;;;3.10;0.75;;;;;;;17.83;50.16;98648.48;1648160;86;21143;-78
2022/09/19 12:05:17;;;;;;;4.25;0.98;;;;;;;18.30;48.52;98651.16;1640601;85;21309;-79
2022/09/19 12:08:24;;;;;;;4.42;0.90;;;;;;;18.98;49.05;98638.92;1657419;84;21085;-78
2022/09/19 12:11:08;;;;;;;4.40;0.82;;;;;;;19.40;46.40;98644.54;1594011;87;21020;-77
2022/09/19 12:13:42;;;;;;;2.35;0.78;;;;;;;19.35;43.75;98651.09;1590727;86;21196;-79
2022/09/19 12:16:20;;;;;;;5.22;0.62;;;;;;;18.83;45.09;98657.55;1599465;86;21134;-79
2022/09/19 12:18:58;;;;;;;5.20;1.35;;;;;;;18.12;46.66;98668.30;1596607;87;21125;-77
2022/09/19 12:21:42;;;;;;;4.67;0.95;;;;;;;17.55;47.46;98665.09;1676880;84;21042;-76
2022/09/19 12:27:38;;;;;;;4.22;1.25;;;;;;;17.03;50.91;98672.52;1682334;83;21108;-82
2022/09/19 12:30:18;;;;;;;5.58;1.42;;;;;;;16.88;51.28;98671.36;1678668;84;21635;-81
2022/09/19 12:32:56;;;;;;;7.40;1.90;;;;;;;16.63;51.65;98669.08;1664144;84;21021;-79
2022/09/19 12:35:51;;;;;;;3.52;1.15;;;;;;;16.40;52.51;98692.72;1675967;83;20956;-74
2022/09/19 12:39:02;;;;;;;2.62;1.32;;;;;;;16.40;52.56;98687.18;1678866;84;21026;-76